sensor_id;sensor_type;location;lat;lon;timestamp;P1;P2;P0
57037;PMS5003;59942;49.304;8.256;2022-10-16T00:01:29;48.00;46.00;40.00
57037;PMS5003;59942;49.304;8.256;2022-10-16T00:03:57;49.60;47.60;40.80
57037;PMS5003;59942;49.304;8.256;2022-10-16T00:06:28;47.20;45.60;39.60
57037;PMS5003;59942;49.304;8.256;2022-10-16T00:08:55;48.40;46.00;40.00
57037;PMS5003;59942;49.304;8.256;2022-10-16T00:11:24;53.40;46.80;40.20
57037;PMS5003;59942;49.304;8.256;2022-10-16T00:13:56;48.20;46.40;40.00
57037;PMS5003;59942;49.304;8.256;2022-10-16T00:16:34;47.20;45.60;39.40
57037;PMS5003;59942;49.304;8.256;2022-10-16T00:19:27;48.00;46.00;40.00
57037;PMS5003;59942;49.304;8.256;2022-10-16T00:21:58;48.20;45.60;39.60
57037;PMS5003;59942;49.304;8.256;2022-10-16T00:24:29;49.80;46.80;40.00
57037;PMS5003;59942;49.304;8.256;2022-10-16T00:27:02;50.80;48.00;40.80
57037;PMS5003;59942;49.304;8.256;2022-10-16T00:29:30;48.00;45.80;39.80
57037;PMS5003;59942;49.304;8.256;2022-10-16T00:32:00;46.40;45.20;39.20
57037;PMS5003;59942;49.304;8.256;2022-10-16T00:34:30;50.60;47.60;40.00
57037;PMS5003;59942;49.304;8.256;2022-10-16T00:36:57;51.00;48.00;41.60
57037;PMS5003;59942;49.304;8.256;2022-10-16T00:39:26;49.80;48.00;40.00
57037;PMS5003;59942;49.304;8.256;2022-10-16T00:41:53;56.60;50.80;42.80
57037;PMS5003;59942;49.304;8.256;2022-10-16T00:47:29;46.00;45.00;39.00
57037;PMS5003;59942;49.304;8.256;2022-10-16T00:50:11;49.00;45.20;39.20
57037;PMS5003;59942;49.304;8.256;2022-10-16T00:52:52;51.60;48.00;40.40
57037;PMS5003;59942;49.304;8.256;2022-10-16T00:55:24;52.60;48.00;41.20
57037;PMS5003;59942;49.304;8.256;2022-10-16T00:57:58;48.20;46.40;40.00
57037;PMS5003;59942;49.304;8.256;2022-10-16T01:00:37;49.00;48.00;40.00
57037;PMS5003;59942;49.304;8.256;2022-10-16T01:03:22;54.00;49.80;42.40
57037;PMS5003;59942;49.304;8.256;2022-10-16T01:06:10;48.60;47.20;40.00
57037;PMS5003;59942;49.304;8.256;2022-10-16T01:11:57;47.00;45.80;39.40
57037;PMS5003;59942;49.304;8.256;2022-10-16T01:14:48;51.20;48.80;41.40
57037;PMS5003;59942;49.304;8.256;2022-10-16T01:20:48;49.00;48.00;40.00
57037;PMS5003;59942;49.304;8.256;2022-10-16T01:29:09;49.00;45.80;39.40
57037;PMS5003;59942;49.304;8.256;2022-10-16T01:38:10;49.20;47.60;40.00
57037;PMS5003;59942;49.304;8.256;2022-10-16T01:41:04;45.40;45.00;39.00
57037;PMS5003;59942;49.304;8.256;2022-10-16T01:43:41;49.00;48.00;40.00
57037;PMS5003;59942;49.304;8.256;2022-10-16T01:46:20;46.00;45.00;39.00
57037;PMS5003;59942;49.304;8.256;2022-10-16T01:48:51;52.20;48.80;41.80
57037;PMS5003;59942;49.304;8.256;2022-10-16T01:51:26;47.20;45.60;39.00
57037;PMS5003;59942;49.304;8.256;2022-10-16T01:54:00;51.00;48.40;41.20
57037;PMS5003;59942;49.304;8.256;2022-10-16T01:56:32;49.00;46.20;39.80
57037;PMS5003;59942;49.304;8.256;2022-10-16T01:59:02;52.00;49.00;42.00
57037;PMS5003;59942;49.304;8.256;2022-10-16T02:01:45;48.40;46.80;40.00
57037;PMS5003;59942;49.304;8.256;2022-10-16T02:07:15;51.20;48.00;40.40
57037;PMS5003;59942;49.304;8.256;2022-10-16T02:09:43;50.00;48.20;40.80
57037;PMS5003;59942;49.304;8.256;2022-10-16T02:12:14;48.60;46.40;40.00
57037;PMS5003;59942;49.304;8.256;2022-10-16T02:14:45;48.00;46.00;40.00
57037;PMS5003;59942;49.304;8.256;2022-10-16T02:17:17;58.80;52.20;43.60
57037;PMS5003;59942;49.304;8.256;2022-10-16T02:19:51;49.40;48.00;40.40
57037;PMS5003;59942;49.304;8.256;2022-10-16T02:24:57;50.40;48.20;41.20
57037;PMS5003;59942;49.304;8.256;2022-10-16T02:27:38;48.60;47.20;40.00
57037;PMS5003;59942;49.304;8.256;2022-10-16T02:30:17;51.40;48.00;40.40
57037;PMS5003;59942;49.304;8.256;2022-10-16T02:32:51;52.40;48.60;42.00
57037;PMS5003;59942;49.304;8.256;2022-10-16T02:35:20;51.40;48.40;42.00
57037;PMS5003;59942;49.304;8.256;2022-10-16T02:37:55;52.40;48.00;42.00
57037;PMS5003;59942;49.304;8.256;2022-10-16T02:40:34;50.00;47.40;40.80
57037;PMS5003;59942;49.304;8.256;2022-10-16T02:43:14;47.20;45.60;39.60
57037;PMS5003;59942;49.304;8.256;2022-10-16T02:46:10;52.60;47.80;40.80
57037;PMS5003;59942;49.304;8.256;2022-10-16T02:48:43;48.40;46.80;40.00
57037;PMS5003;59942;49.304;8.256;2022-10-16T02:51:22;48.00;46.00;40.00
57037;PMS5003;59942;49.304;8.256;2022-10-16T02:53:49;52.80;48.00;42.00
57037;PMS5003;59942;49.304;8.256;2022-10-16T02:56:24;51.00;48.00;40.40
57037;PMS5003;59942;49.304;8.256;2022-10-16T02:58:58;49.40;47.20;40.40
57037;PMS5003;59942;49.304;8.256;2022-10-16T03:01:30;49.00;48.00;40.00
57037;PMS5003;59942;49.304;8.256;2022-10-16T03:04:12;47.20;45.60;39.20
57037;PMS5003;59942;49.304;8.256;2022-10-16T03:06:42;50.60;48.00;40.40
57037;PMS5003;59942;49.304;8.256;2022-10-16T03:09:29;50.60;46.00;40.00
57037;PMS5003;59942;49.304;8.256;2022-10-16T03:12:06;48.60;47.20;40.00
57037;PMS5003;59942;49.304;8.256;2022-10-16T03:14:34;48.20;46.40;40.00
57037;PMS5003;59942;49.304;8.256;2022-10-16T03:17:03;47.20;45.60;39.60
57037;PMS5003;59942;49.304;8.256;2022-10-16T03:19:43;52.80;49.00;42.00
57037;PMS5003;59942;49.304;8.256;2022-10-16T03:22:30;49.40;48.00;40.40
57037;PMS5003;59942;49.304;8.256;2022-10-16T03:25:24;49.80;48.00;40.00
57037;PMS5003;59942;49.304;8.256;2022-10-16T03:27:51;48.40;46.80;40.00
57037;PMS5003;59942;49.304;8.256;2022-10-16T03:30:25;53.00;48.20;40.80
57037;PMS5003;59942;49.304;8.256;2022-10-16T03:32:54;48.40;46.80;40.00
57037;PMS5003;59942;49.304;8.256;2022-10-16T03:35:43;46.80;45.40;39.40
57037;PMS5003;59942;49.304;8.256;2022-10-16T03:38:13;52.20;48.00;40.80
57037;PMS5003;59942;49.304;8.256;2022-10-16T03:40:51;51.40;48.40;42.00
57037;PMS5003;59942;49.304;8.256;2022-10-16T03:43:24;51.20;48.80;41.40
57037;PMS5003;59942;49.304;8.256;2022-10-16T03:46:00;48.40;46.40;40.00
57037;PMS5003;59942;49.304;8.256;2022-10-16T03:48:33;50.80;48.20;41.60
57037;PMS5003;59942;49.304;8.256;2022-10-16T03:51:06;49.60;48.00;40.40
57037;PMS5003;59942;49.304;8.256;2022-10-16T03:53:36;49.40;48.00;40.00
57037;PMS5003;59942;49.304;8.256;2022-10-16T03:56:04;49.00;48.00;40.00
57037;PMS5003;59942;49.304;8.256;2022-10-16T03:58:38;54.40;49.00;42.00
57037;PMS5003;59942;49.304;8.256;2022-10-16T04:01:05;51.20;48.20;42.00
57037;PMS5003;59942;49.304;8.256;2022-10-16T04:03:36;52.00;48.80;41.40
57037;PMS5003;59942;49.304;8.256;2022-10-16T04:06:10;51.20;48.20;41.20
57037;PMS5003;59942;49.304;8.256;2022-10-16T04:08:42;74.60;63.80;52.00
57037;PMS5003;59942;49.304;8.256;2022-10-16T04:11:22;48.80;46.80;40.20
57037;PMS5003;59942;49.304;8.256;2022-10-16T04:13:50;49.60;47.40;40.80
57037;PMS5003;59942;49.304;8.256;2022-10-16T04:16:31;49.00;46.00;40.00
57037;PMS5003;59942;49.304;8.256;2022-10-16T04:19:01;51.00;48.00;40.40
57037;PMS5003;59942;49.304;8.256;2022-10-16T04:21:34;48.80;46.80;40.40
57037;PMS5003;59942;49.304;8.256;2022-10-16T04:24:11;52.20;48.00;40.00
57037;PMS5003;59942;49.304;8.256;2022-10-16T04:26:43;52.40;48.00;40.00
57037;PMS5003;59942;49.304;8.256;2022-10-16T04:29:13;53.00;49.60;42.40
57037;PMS5003;59942;49.304;8.256;2022-10-16T04:31:52;46.00;45.00;39.00
57037;PMS5003;59942;49.304;8.256;2022-10-16T04:34:33;49.40;46.00;40.00
57037;PMS5003;59942;49.304;8.256;2022-10-16T04:37:05;58.80;52.80;44.80
57037;PMS5003;59942;49.304;8.256;2022-10-16T04:39:35;48.60;47.20;40.00
57037;PMS5003;59942;49.304;8.256;2022-10-16T04:42:02;51.00;48.00;40.00
57037;PMS5003;59942;49.304;8.256;2022-10-16T04:44:36;49.60;48.00;40.00
57037;PMS5003;59942;49.304;8.256;2022-10-16T04:47:03;57.20;51.80;43.60
57037;PMS5003;59942;49.304;8.256;2022-10-16T04:49:36;48.20;46.40;40.00
57037;PMS5003;59942;49.304;8.256;2022-10-16T04:52:04;50.20;48.00;41.20
57037;PMS5003;59942;49.304;8.256;2022-10-16T04:54:41;53.00;49.60;42.40
57037;PMS5003;59942;49.304;8.256;2022-10-16T04:57:16;47.20;45.60;39.60
57037;PMS5003;59942;49.304;8.256;2022-10-16T04:59:45;57.80;51.00;43.60
57037;PMS5003;59942;49.304;8.256;2022-10-16T05:02:15;46.80;45.40;39.40
57037;PMS5003;59942;49.304;8.256;2022-10-16T05:04:56;49.00;47.20;40.00
57037;PMS5003;59942;49.304;8.256;2022-10-16T05:07:27;49.00;48.00;40.00
57037;PMS5003;59942;49.304;8.256;2022-10-16T05:10:03;62.80;54.40;45.60
57037;PMS5003;59942;49.304;8.256;2022-10-16T05:12:31;50.00;48.20;40.40
57037;PMS5003;59942;49.304;8.256;2022-10-16T05:15:02;51.80;48.00;40.40
57037;PMS5003;59942;49.304;8.256;2022-10-16T05:17:33;47.20;45.60;39.60
57037;PMS5003;59942;49.304;8.256;2022-10-16T05:20:05;53.80;48.20;42.00
57037;PMS5003;59942;49.304;8.256;2022-10-16T05:22:40;53.00;49.00;41.40
57037;PMS5003;59942;49.304;8.256;2022-10-16T05:25:13;54.60;49.80;42.40
57037;PMS5003;59942;49.304;8.256;2022-10-16T05:27:46;50.80;48.20;40.80
57037;PMS5003;59942;49.304;8.256;2022-10-16T05:30:15;47.20;45.60;39.60
57037;PMS5003;59942;49.304;8.256;2022-10-16T05:32:48;52.00;49.00;42.00
57037;PMS5003;59942;49.304;8.256;2022-10-16T05:35:29;47.40;46.00;39.60
57037;PMS5003;59942;49.304;8.256;2022-10-16T05:37:58;49.00;48.00;40.00
57037;PMS5003;59942;49.304;8.256;2022-10-16T05:40:32;49.00;48.00;40.00
57037;PMS5003;59942;49.304;8.256;2022-10-16T05:42:59;49.00;48.00;40.00
57037;PMS5003;59942;49.304;8.256;2022-10-16T05:45:27;48.00;46.00;40.00
57037;PMS5003;59942;49.304;8.256;2022-10-16T05:47:55;48.80;46.00;40.00
57037;PMS5003;59942;49.304;8.256;2022-10-16T05:50:22;51.00;48.00;40.00
57037;PMS5003;59942;49.304;8.256;2022-10-16T05:52:49;48.00;46.00;40.00
57037;PMS5003;59942;49.304;8.256;2022-10-16T05:55:18;52.00;48.00;40.00
57037;PMS5003;59942;49.304;8.256;2022-10-16T05:57:45;48.40;45.20;39.20
57037;PMS5003;59942;49.304;8.256;2022-10-16T06:00:12;49.00;46.80;40.00
57037;PMS5003;59942;49.304;8.256;2022-10-16T06:02:39;55.40;48.00;40.80
57037;PMS5003;59942;49.304;8.256;2022-10-16T06:05:06;53.40;48.20;41.60
57037;PMS5003;59942;49.304;8.256;2022-10-16T06:07:36;48.80;47.60;40.00
57037;PMS5003;59942;49.304;8.256;2022-10-16T06:10:03;48.60;46.00;40.00
57037;PMS5003;59942;49.304;8.256;2022-10-16T06:12:31;53.00;48.40;41.20
57037;PMS5003;59942;49.304;8.256;2022-10-16T06:15:00;50.40;46.00;40.00
57037;PMS5003;59942;49.304;8.256;2022-10-16T06:17:27;49.00;48.00;40.00
57037;PMS5003;59942;49.304;8.256;2022-10-16T06:20:02;51.00;46.00;40.00
57037;PMS5003;59942;49.304;8.256;2022-10-16T06:22:51;54.00;49.00;42.00
57037;PMS5003;59942;49.304;8.256;2022-10-16T06:25:25;48.60;46.00;40.00
57037;PMS5003;59942;49.304;8.256;2022-10-16T06:27:52;50.60;48.00;40.00
57037;PMS5003;59942;49.304;8.256;2022-10-16T06:30:25;49.00;48.00;40.00
57037;PMS5003;59942;49.304;8.256;2022-10-16T06:32:59;48.80;45.40;39.00
57037;PMS5003;59942;49.304;8.256;2022-10-16T06:35:30;48.60;47.20;40.00
57037;PMS5003;59942;49.304;8.256;2022-10-16T06:38:04;51.00;46.40;40.00
57037;PMS5003;59942;49.304;8.256;2022-10-16T06:40:41;51.80;48.40;40.80
57037;PMS5003;59942;49.304;8.256;2022-10-16T06:43:18;53.60;49.00;42.00
57037;PMS5003;59942;49.304;8.256;2022-10-16T06:46:02;50.80;48.20;40.40
57037;PMS5003;59942;49.304;8.256;2022-10-16T06:48:30;51.00;48.40;40.80
57037;PMS5003;59942;49.304;8.256;2022-10-16T06:51:04;58.40;51.00;43.20
57037;PMS5003;59942;49.304;8.256;2022-10-16T06:53:54;48.20;46.40;40.00
57037;PMS5003;59942;49.304;8.256;2022-10-16T06:56:30;54.00;48.40;42.00
57037;PMS5003;59942;49.304;8.256;2022-10-16T06:59:24;52.40;49.00;41.40
57037;PMS5003;59942;49.304;8.256;2022-10-16T07:02:11;54.60;49.00;42.00
57037;PMS5003;59942;49.304;8.256;2022-10-16T07:04:59;51.00;48.00;41.60
57037;PMS5003;59942;49.304;8.256;2022-10-16T07:07:30;48.00;46.00;40.00
57037;PMS5003;59942;49.304;8.256;2022-10-16T07:10:01;52.20;48.20;41.20
57037;PMS5003;59942;49.304;8.256;2022-10-16T07:12:28;49.00;46.40;40.00
57037;PMS5003;59942;49.304;8.256;2022-10-16T07:18:09;48.00;46.00;39.60
57037;PMS5003;59942;49.304;8.256;2022-10-16T07:23:52;49.80;46.40;40.00
57037;PMS5003;59942;49.304;8.256;2022-10-16T07:26:21;49.40;48.00;40.40
57037;PMS5003;59942;49.304;8.256;2022-10-16T07:29:35;52.60;48.00;40.40
57037;PMS5003;59942;49.304;8.256;2022-10-16T07:32:11;49.00;46.00;40.00
57037;PMS5003;59942;49.304;8.256;2022-10-16T07:34:52;51.40;48.00;40.00
57037;PMS5003;59942;49.304;8.256;2022-10-16T07:37:34;50.60;48.00;40.00
57037;PMS5003;59942;49.304;8.256;2022-10-16T07:40:02;57.60;52.60;43.60
57037;PMS5003;59942;49.304;8.256;2022-10-16T07:43:05;54.00;49.00;42.00
57037;PMS5003;59942;49.304;8.256;2022-10-16T07:46:00;50.40;48.20;41.20
57037;PMS5003;59942;49.304;8.256;2022-10-16T07:48:41;49.00;47.20;40.40
57037;PMS5003;59942;49.304;8.256;2022-10-16T07:51:19;50.20;48.00;40.00
57037;PMS5003;59942;49.304;8.256;2022-10-16T07:53:55;52.00;48.00;41.60
57037;PMS5003;59942;49.304;8.256;2022-10-16T07:56:58;51.40;48.40;42.00
57037;PMS5003;59942;49.304;8.256;2022-10-16T07:59:50;57.40;50.20;42.60
57037;PMS5003;59942;49.304;8.256;2022-10-16T08:02:23;55.80;49.40;42.20
57037;PMS5003;59942;49.304;8.256;2022-10-16T08:08:17;57.20;52.00;44.00
57037;PMS5003;59942;49.304;8.256;2022-10-16T08:10:49;51.40;48.00;40.00
57037;PMS5003;59942;49.304;8.256;2022-10-16T08:16:30;53.00;49.60;42.40
57037;PMS5003;59942;49.304;8.256;2022-10-16T08:19:04;78.60;65.60;54.20
57037;PMS5003;59942;49.304;8.256;2022-10-16T08:30:43;57.20;51.20;42.60
57037;PMS5003;59942;49.304;8.256;2022-10-16T08:33:21;52.00;48.40;41.20
57037;PMS5003;59942;49.304;8.256;2022-10-16T08:36:12;51.40;48.40;41.60
57037;PMS5003;59942;49.304;8.256;2022-10-16T08:38:47;61.00;54.00;45.00
57037;PMS5003;59942;49.304;8.256;2022-10-16T08:57:39;54.60;50.20;42.60
57037;PMS5003;59942;49.304;8.256;2022-10-16T09:00:20;54.00;49.00;42.00
57037;PMS5003;59942;49.304;8.256;2022-10-16T09:18:12;57.00;52.00;43.00
57037;PMS5003;59942;49.304;8.256;2022-10-16T09:21:13;56.20;51.60;43.00
57037;PMS5003;59942;49.304;8.256;2022-10-16T09:24:20;56.60;51.80;43.00
57037;PMS5003;59942;49.304;8.256;2022-10-16T09:26:55;71.40;60.00;49.20
57037;PMS5003;59942;49.304;8.256;2022-10-16T09:29:25;63.40;53.40;44.60
57037;PMS5003;59942;49.304;8.256;2022-10-16T09:31:56;55.40;49.00;42.00
57037;PMS5003;59942;49.304;8.256;2022-10-16T09:34:42;59.60;53.20;45.40
57037;PMS5003;59942;49.304;8.256;2022-10-16T09:37:40;60.20;52.40;43.80
57037;PMS5003;59942;49.304;8.256;2022-10-16T09:43:21;61.00;54.20;45.40
57037;PMS5003;59942;49.304;8.256;2022-10-16T09:57:55;60.00;52.00;43.00
57037;PMS5003;59942;49.304;8.256;2022-10-16T10:00:49;60.75;54.00;45.50
57037;PMS5003;59942;49.304;8.256;2022-10-16T10:03:37;62.00;54.50;46.00
57037;PMS5003;59942;49.304;8.256;2022-10-16T10:09:15;60.00;54.00;45.00
57037;PMS5003;59942;49.304;8.256;2022-10-16T10:14:38;60.50;54.00;45.00
57037;PMS5003;59942;49.304;8.256;2022-10-16T12:37:10;63.60;56.20;46.00
57037;PMS5003;59942;49.304;8.256;2022-10-16T14:13:38;63.20;52.00;43.80
57037;PMS5003;59942;49.304;8.256;2022-10-16T15:30:31;60.00;54.00;45.00
57037;PMS5003;59942;49.304;8.256;2022-10-16T15:33:45;63.80;55.40;46.40
57037;PMS5003;59942;49.304;8.256;2022-10-16T15:39:45;59.00;53.00;45.00
57037;PMS5003;59942;49.304;8.256;2022-10-16T15:42:16;61.80;54.40;46.00
57037;PMS5003;59942;49.304;8.256;2022-10-16T15:44:54;66.00;54.20;45.80
57037;PMS5003;59942;49.304;8.256;2022-10-16T15:47:21;65.60;57.00;46.00
57037;PMS5003;59942;49.304;8.256;2022-10-16T15:49:51;59.20;52.00;45.00
57037;PMS5003;59942;49.304;8.256;2022-10-16T15:52:18;67.20;57.80;47.60
57037;PMS5003;59942;49.304;8.256;2022-10-16T15:54:46;62.00;54.00;45.60
57037;PMS5003;59942;49.304;8.256;2022-10-16T15:57:20;58.50;52.50;45.00
57037;PMS5003;59942;49.304;8.256;2022-10-16T15:59:48;58.40;52.40;45.00
57037;PMS5003;59942;49.304;8.256;2022-10-16T16:02:17;64.60;54.20;45.40
57037;PMS5003;59942;49.304;8.256;2022-10-16T16:04:44;60.00;54.00;45.00
57037;PMS5003;59942;49.304;8.256;2022-10-16T16:07:11;63.00;55.00;46.00
57037;PMS5003;59942;49.304;8.256;2022-10-16T16:09:38;64.80;54.20;45.80
57037;PMS5003;59942;49.304;8.256;2022-10-16T16:12:05;66.40;54.40;46.00
57037;PMS5003;59942;49.304;8.256;2022-10-16T16:14:32;62.00;54.80;46.00
57037;PMS5003;59942;49.304;8.256;2022-10-16T16:16:59;57.40;52.00;43.80
57037;PMS5003;59942;49.304;8.256;2022-10-16T16:19:26;60.60;52.00;45.00
57037;PMS5003;59942;49.304;8.256;2022-10-16T16:21:58;63.20;55.40;46.00
57037;PMS5003;59942;49.304;8.256;2022-10-16T16:24:25;60.80;53.60;45.00
57037;PMS5003;59942;49.304;8.256;2022-10-16T16:26:53;63.00;52.00;43.80
57037;PMS5003;59942;49.304;8.256;2022-10-16T16:29:24;63.60;54.00;45.00
57037;PMS5003;59942;49.304;8.256;2022-10-16T16:31:50;59.20;53.20;43.40
57037;PMS5003;59942;49.304;8.256;2022-10-16T16:34:24;62.20;54.00;45.40
57037;PMS5003;59942;49.304;8.256;2022-10-16T16:36:52;57.20;52.00;43.40
57037;PMS5003;59942;49.304;8.256;2022-10-16T16:39:21;66.00;57.00;47.40
57037;PMS5003;59942;49.304;8.256;2022-10-16T16:41:49;60.20;54.00;45.00
57037;PMS5003;59942;49.304;8.256;2022-10-16T16:44:17;71.60;61.60;50.40
57037;PMS5003;59942;49.304;8.256;2022-10-16T16:46:44;57.00;52.00;43.00
57037;PMS5003;59942;49.304;8.256;2022-10-16T16:49:11;59.60;53.20;45.00
57037;PMS5003;59942;49.304;8.256;2022-10-16T16:51:42;55.00;49.00;42.00
57037;PMS5003;59942;49.304;8.256;2022-10-16T16:54:09;58.60;52.00;45.00
57037;PMS5003;59942;49.304;8.256;2022-10-16T16:56:40;64.00;52.40;45.00
57037;PMS5003;59942;49.304;8.256;2022-10-16T16:59:11;62.80;54.20;45.20
57037;PMS5003;59942;49.304;8.256;2022-10-16T17:01:44;64.60;55.40;45.60
57037;PMS5003;59942;49.304;8.256;2022-10-16T17:04:21;56.80;51.00;43.00
57037;PMS5003;59942;49.304;8.256;2022-10-16T17:06:50;59.20;53.20;44.20
57037;PMS5003;59942;49.304;8.256;2022-10-16T17:09:27;57.00;52.00;43.00
57037;PMS5003;59942;49.304;8.256;2022-10-16T17:11:58;59.40;52.00;43.40
57037;PMS5003;59942;49.304;8.256;2022-10-16T17:14:26;57.00;52.00;43.00
57037;PMS5003;59942;49.304;8.256;2022-10-16T17:16:57;61.00;52.40;43.40
57037;PMS5003;59942;49.304;8.256;2022-10-16T17:19:27;59.20;52.00;43.00
57037;PMS5003;59942;49.304;8.256;2022-10-16T17:21:58;68.00;57.00;47.00
57037;PMS5003;59942;49.304;8.256;2022-10-16T17:24:27;78.40;63.80;47.60
57037;PMS5003;59942;49.304;8.256;2022-10-16T17:26:54;75.20;61.00;48.00
57037;PMS5003;59942;49.304;8.256;2022-10-16T17:29:23;70.40;57.00;46.00
57037;PMS5003;59942;49.304;8.256;2022-10-16T17:31:55;73.00;57.80;46.00
57037;PMS5003;59942;49.304;8.256;2022-10-16T17:34:26;59.00;52.00;44.20
57037;PMS5003;59942;49.304;8.256;2022-10-16T17:36:59;71.60;60.60;48.00
57037;PMS5003;59942;49.304;8.256;2022-10-16T17:39:27;65.40;54.00;45.00
57037;PMS5003;59942;49.304;8.256;2022-10-16T17:41:55;67.00;57.00;45.40
57037;PMS5003;59942;49.304;8.256;2022-10-16T17:44:23;63.20;54.00;43.80
57037;PMS5003;59942;49.304;8.256;2022-10-16T17:46:52;58.80;52.80;45.00
57037;PMS5003;59942;49.304;8.256;2022-10-16T17:49:24;69.80;58.00;46.40
57037;PMS5003;59942;49.304;8.256;2022-10-16T17:51:52;63.80;52.00;45.00
57037;PMS5003;59942;49.304;8.256;2022-10-16T17:54:24;56.60;51.80;43.00
57037;PMS5003;59942;49.304;8.256;2022-10-16T17:56:52;56.60;51.60;42.80
57037;PMS5003;59942;49.304;8.256;2022-10-16T17:59:20;61.80;54.40;45.60
57037;PMS5003;59942;49.304;8.256;2022-10-16T18:01:48;55.40;51.20;43.00
57037;PMS5003;59942;49.304;8.256;2022-10-16T18:04:20;60.40;49.40;42.00
57037;PMS5003;59942;49.304;8.256;2022-10-16T18:06:49;55.00;51.00;42.20
57037;PMS5003;59942;49.304;8.256;2022-10-16T18:09:17;57.80;51.20;42.20
57037;PMS5003;59942;49.304;8.256;2022-10-16T18:11:46;65.40;54.00;43.80
57037;PMS5003;59942;49.304;8.256;2022-10-16T18:14:16;65.80;55.40;46.00
57037;PMS5003;59942;49.304;8.256;2022-10-16T18:16:50;65.40;54.40;45.00
57037;PMS5003;59942;49.304;8.256;2022-10-16T18:19:18;60.60;52.40;43.00
57037;PMS5003;59942;49.304;8.256;2022-10-16T18:21:47;66.80;54.80;45.20
57037;PMS5003;59942;49.304;8.256;2022-10-16T18:24:18;84.00;66.80;51.00
57037;PMS5003;59942;49.304;8.256;2022-10-16T18:26:54;68.40;58.40;46.00
57037;PMS5003;59942;49.304;8.256;2022-10-16T18:29:26;65.40;52.80;43.00
57037;PMS5003;59942;49.304;8.256;2022-10-16T18:31:59;58.40;52.00;43.00
57037;PMS5003;59942;49.304;8.256;2022-10-16T18:34:27;58.40;52.00;43.00
57037;PMS5003;59942;49.304;8.256;2022-10-16T18:36:54;63.20;53.00;43.00
57037;PMS5003;59942;49.304;8.256;2022-10-16T18:39:24;74.40;60.80;46.00
57037;PMS5003;59942;49.304;8.256;2022-10-16T18:41:55;73.40;59.20;46.00
57037;PMS5003;59942;49.304;8.256;2022-10-16T18:44:27;70.40;57.40;45.20
57037;PMS5003;59942;49.304;8.256;2022-10-16T18:46:56;67.20;58.40;45.60
57037;PMS5003;59942;49.304;8.256;2022-10-16T18:49:25;70.40;59.20;45.80
57037;PMS5003;59942;49.304;8.256;2022-10-16T18:51:53;69.20;59.40;46.40
57037;PMS5003;59942;49.304;8.256;2022-10-16T18:54:23;83.80;66.20;49.40
57037;PMS5003;59942;49.304;8.256;2022-10-16T18:56:56;65.20;56.20;45.00
57037;PMS5003;59942;49.304;8.256;2022-10-16T18:59:23;66.20;56.00;45.40
57037;PMS5003;59942;49.304;8.256;2022-10-16T19:01:54;64.40;53.60;42.80
57037;PMS5003;59942;49.304;8.256;2022-10-16T19:04:26;69.20;57.00;46.00
57037;PMS5003;59942;49.304;8.256;2022-10-16T19:06:53;62.00;52.80;43.00
57037;PMS5003;59942;49.304;8.256;2022-10-16T19:09:23;59.40;52.00;43.00
57037;PMS5003;59942;49.304;8.256;2022-10-16T19:11:51;63.00;52.40;43.80
57037;PMS5003;59942;49.304;8.256;2022-10-16T19:14:18;68.40;55.40;45.80
57037;PMS5003;59942;49.304;8.256;2022-10-16T19:16:48;69.20;57.80;46.40
57037;PMS5003;59942;49.304;8.256;2022-10-16T19:19:16;64.80;54.00;44.20
57037;PMS5003;59942;49.304;8.256;2022-10-16T19:21:46;67.00;57.00;45.20
57037;PMS5003;59942;49.304;8.256;2022-10-16T19:24:17;61.40;53.80;44.80
57037;PMS5003;59942;49.304;8.256;2022-10-16T19:26:48;60.00;52.00;43.00
57037;PMS5003;59942;49.304;8.256;2022-10-16T19:29:18;56.00;51.20;42.20
57037;PMS5003;59942;49.304;8.256;2022-10-16T19:31:47;58.40;51.40;42.00
57037;PMS5003;59942;49.304;8.256;2022-10-16T19:34:16;61.60;49.00;42.00
57037;PMS5003;59942;49.304;8.256;2022-10-16T19:36:52;53.20;49.00;42.00
57037;PMS5003;59942;49.304;8.256;2022-10-16T19:39:19;53.20;48.80;42.00
57037;PMS5003;59942;49.304;8.256;2022-10-16T19:41:53;60.60;52.80;43.40
57037;PMS5003;59942;49.304;8.256;2022-10-16T19:44:24;70.00;57.80;45.40
57037;PMS5003;59942;49.304;8.256;2022-10-16T19:46:53;60.40;52.80;43.40
57037;PMS5003;59942;49.304;8.256;2022-10-16T19:49:23;55.00;50.20;42.00
57037;PMS5003;59942;49.304;8.256;2022-10-16T19:51:50;55.80;49.40;42.00
57037;PMS5003;59942;49.304;8.256;2022-10-16T19:54:28;56.40;50.60;42.40
57037;PMS5003;59942;49.304;8.256;2022-10-16T19:56:58;58.20;51.40;42.80
57037;PMS5003;59942;49.304;8.256;2022-10-16T19:59:38;54.40;48.60;42.00
57037;PMS5003;59942;49.304;8.256;2022-10-16T20:02:14;66.80;56.80;46.80
57037;PMS5003;59942;49.304;8.256;2022-10-16T20:05:07;59.40;51.80;42.80
57037;PMS5003;59942;49.304;8.256;2022-10-16T20:07:35;66.40;57.00;45.00
57037;PMS5003;59942;49.304;8.256;2022-10-16T20:10:08;60.40;51.00;42.40
57037;PMS5003;59942;49.304;8.256;2022-10-16T20:12:39;57.00;50.20;42.00
57037;PMS5003;59942;49.304;8.256;2022-10-16T20:15:17;58.00;51.00;42.00
57037;PMS5003;59942;49.304;8.256;2022-10-16T20:17:47;56.00;50.20;42.20
57037;PMS5003;59942;49.304;8.256;2022-10-16T20:20:18;60.20;50.60;42.00
57037;PMS5003;59942;49.304;8.256;2022-10-16T20:22:45;54.20;49.00;42.00
57037;PMS5003;59942;49.304;8.256;2022-10-16T20:25:17;55.80;49.40;42.00
57037;PMS5003;59942;49.304;8.256;2022-10-16T20:27:44;61.20;52.40;44.60
57037;PMS5003;59942;49.304;8.256;2022-10-16T20:30:12;56.00;50.00;42.20
57037;PMS5003;59942;49.304;8.256;2022-10-16T20:32:43;54.00;49.00;42.00
57037;PMS5003;59942;49.304;8.256;2022-10-16T20:35:18;52.20;48.40;41.60
57037;PMS5003;59942;49.304;8.256;2022-10-16T20:37:53;51.60;48.60;41.20
57037;PMS5003;59942;49.304;8.256;2022-10-16T20:40:24;56.40;50.60;42.40
57037;PMS5003;59942;49.304;8.256;2022-10-16T20:42:53;56.20;48.40;42.00
57037;PMS5003;59942;49.304;8.256;2022-10-16T20:45:25;57.20;50.60;42.00
57037;PMS5003;59942;49.304;8.256;2022-10-16T20:48:04;53.80;48.40;42.00
57037;PMS5003;59942;49.304;8.256;2022-10-16T20:50:33;50.40;48.20;41.20
57037;PMS5003;59942;49.304;8.256;2022-10-16T20:53:04;52.40;48.20;40.80
57037;PMS5003;59942;49.304;8.256;2022-10-16T20:55:38;54.00;49.00;42.00
57037;PMS5003;59942;49.304;8.256;2022-10-16T20:58:08;51.40;48.20;41.20
57037;PMS5003;59942;49.304;8.256;2022-10-16T21:00:35;52.00;48.00;41.20
57037;PMS5003;59942;49.304;8.256;2022-10-16T21:03:05;51.40;47.20;40.00
57037;PMS5003;59942;49.304;8.256;2022-10-16T21:05:32;56.20;48.80;42.00
57037;PMS5003;59942;49.304;8.256;2022-10-16T21:08:12;52.00;48.00;41.60
57037;PMS5003;59942;49.304;8.256;2022-10-16T21:10:39;54.60;49.00;42.00
57037;PMS5003;59942;49.304;8.256;2022-10-16T21:13:06;51.60;48.60;41.60
57037;PMS5003;59942;49.304;8.256;2022-10-16T21:15:44;52.20;48.40;41.20